Gardner, Kansas
Current Conditions -  °F | °C
As of 6:53 AM on Thursday 27 Nov 2014 (Local Time) from KIXD Reporting Station
Overcast Overcast  
Wind Chill: 16°   Ceiling: 1300
Heat Index: 23°   Visibility: 7mi
Dew Point: 20°   Wind: 6mph
Humidity: 88%   Direction: 310°NW
Pressure: 30.5"   Gusts: NA
Location:  38.81°N, 94.93°W
Report Text: KIXD 271253Z 31005KT 7SM OVC013 M05/M07 A3050 RMK AO2 SLP341 T10501067
Loading
Personal Weather Stations






























Interactive Weather Map New forecast layout! Learn more

10-Day Weather Forecast

Advertisements
Track Severe Weather on mobile